Time;durP1;ratioP1;P1;durP2;ratioP2;P2;SDS_P1;SDS_P2;PMS_P1;PMS_P2;Temp;Humidity;BMP_temperature;BMP_pressure;BME280_temperature;BME280_humidity;BME280_pressure;Samples;Min_cycle;Max_cycle;Signal;HPM_P1;HPM_P2
2022/10/29 00:02:18;;;;;;;;;13.75;10.75;;;;;20.02;67.63;101734.00;5037396;28;47362;-78
2022/10/29 00:04:43;;;;;;;;;11.75;10.00;;;;;20.04;67.64;101726.84;5054545;28;60710;-78
2022/10/29 00:07:09;;;;;;;;;12.00;10.75;;;;;20.01;67.56;101717.31;5054755;28;58680;-78
2022/10/29 00:09:34;;;;;;;;;12.25;10.25;;;;;19.99;67.94;101718.34;5054694;28;54807;-77
2022/10/29 00:11:59;;;;;;;;;13.75;12.50;;;;;19.97;67.65;101723.69;5052558;28;74370;-77
2022/10/29 00:14:25;;;;;;;;;13.50;9.75;;;;;19.96;67.44;101711.41;5054265;28;67635;-78
2022/10/29 00:16:50;;;;;;;;;13.50;11.25;;;;;19.94;67.65;101696.56;5057485;28;63236;-78
2022/10/29 00:19:16;;;;;;;;;14.25;13.00;;;;;19.92;68.07;101692.22;5058365;28;45298;-79
2022/10/29 00:21:41;;;;;;;;;12.00;10.50;;;;;19.93;67.88;101701.00;5058131;28;53101;-78
2022/10/29 00:24:08;;;;;;;;;13.00;9.00;;;;;19.90;67.75;101694.09;5057520;28;72331;-78
2022/10/29 00:26:34;;;;;;;;;9.25;8.75;;;;;19.90;67.94;101693.25;5058250;28;45421;-78
2022/10/29 00:28:59;;;;;;;;;11.00;10.00;;;;;19.89;67.71;101692.41;5040442;28;45449;-78
2022/10/29 00:31:24;;;;;;;;;14.00;11.00;;;;;19.91;67.98;101687.03;5057466;28;73316;-78
2022/10/29 00:33:51;;;;;;;;;12.75;9.50;;;;;19.92;68.02;101689.56;5058286;28;45380;-78
2022/10/29 00:36:20;;;;;;;;;11.75;10.00;;;;;19.92;67.84;101689.56;5058370;28;45334;-79
2022/10/29 00:38:46;;;;;;;;;12.75;10.50;;;;;19.92;68.18;101689.56;5040615;28;45287;-78
2022/10/29 00:41:16;;;;;;;;;10.25;9.00;;;;;19.89;67.94;101676.53;5057725;28;45560;-78
2022/10/29 00:44:14;;;;;;;;;14.00;10.00;;;;;19.88;68.17;101666.06;5040102;28;45479;-78
2022/10/29 00:46:48;;;;;;;;;13.00;10.50;;;;;19.85;67.47;101677.63;4995955;28;45401;-78
2022/10/29 00:49:15;;;;;;;;;11.50;10.50;;;;;19.87;68.02;101645.84;4979857;28;45384;-78
2022/10/29 00:51:41;;;;;;;;;11.00;9.00;;;;;19.86;68.12;101650.28;4978407;28;74559;-78
2022/10/29 00:54:12;;;;;;;;;10.50;8.00;;;;;19.85;67.90;101653.84;4978682;28;60980;-78
2022/10/29 00:56:42;;;;;;;;;13.75;11.75;;;;;19.82;68.65;101663.75;4995950;28;45448;-78
2022/10/29 00:59:08;;;;;;;;;12.00;9.75;;;;;19.82;68.16;101669.03;4996065;28;45507;-78
2022/10/29 01:01:34;;;;;;;;;14.75;9.75;;;;;19.82;68.54;101658.47;4994666;28;74550;-78
2022/10/29 01:03:59;;;;;;;;;14.00;11.50;;;;;19.82;68.17;101661.09;4979293;28;45535;-78
2022/10/29 01:06:25;;;;;;;;;12.00;11.00;;;;;19.83;68.16;101644.28;4995690;28;45508;-78
2022/10/29 01:08:52;;;;;;;;;16.00;13.50;;;;;19.82;68.17;101630.25;4978207;28;67800;-78
2022/10/29 01:11:39;;;;;;;;;13.75;12.50;;;;;19.79;68.13;101611.06;4995755;28;46188;-78
2022/10/29 01:14:32;;;;;;;;;17.75;13.25;;;;;19.73;67.83;101601.69;4995747;28;45998;-78
2022/10/29 01:17:15;;;;;;;;;16.75;12.25;;;;;19.70;68.21;101607.09;4995438;28;45395;-78
2022/10/29 01:20:18;;;;;;;;;11.25;9.75;;;;;19.67;68.36;101615.19;4995258;28;45631;-78
2022/10/29 01:23:22;;;;;;;;;11.25;11.00;;;;;19.65;68.33;101612.63;5005246;28;46492;-77
2022/10/29 01:26:04;;;;;;;;;15.25;13.00;;;;;19.65;68.15;101604.69;5057585;28;45705;-77
2022/10/29 01:28:35;;;;;;;;;12.25;11.00;;;;;19.66;68.25;101597.63;5057024;28;45446;-78
2022/10/29 01:31:31;;;;;;;;;18.50;12.25;;;;;19.63;68.21;101597.78;5057611;28;45350;-78
2022/10/29 01:34:09;;;;;;;;;12.50;10.25;;;;;19.63;68.76;101603.94;5057233;28;47525;-78
2022/10/29 01:36:43;;;;;;;;;12.00;12.00;;;;;19.62;68.14;101601.38;5039416;28;45348;-78
2022/10/29 01:39:34;;;;;;;;;15.25;13.50;;;;;19.62;68.72;101602.22;5039252;28;45458;-78
2022/10/29 01:42:16;;;;;;;;;13.50;12.25;;;;;19.63;68.65;101601.28;5057324;28;45361;-76
2022/10/29 01:44:50;;;;;;;;;17.25;13.00;;;;;19.62;68.61;101596.09;5038804;28;49302;-76
2022/10/29 01:47:19;;;;;;;;;15.75;12.00;;;;;19.60;68.33;101600.59;5039320;28;45661;-76
2022/10/29 01:49:50;;;;;;;;;13.00;11.50;;;;;19.59;68.18;101598.88;5057262;28;45339;-76
2022/10/29 01:52:17;;;;;;;;;14.75;11.50;;;;;19.59;68.61;101586.53;5038999;28;45528;-77
2022/10/29 01:54:44;;;;;;;;;9.75;9.50;;;;;19.60;68.22;101567.13;5039088;28;46203;-76
2022/10/29 01:57:24;;;;;;;;;14.25;12.75;;;;;19.57;67.99;101561.16;5057097;28;45822;-76
2022/10/29 01:59:50;;;;;;;;;11.75;11.75;;;;;19.54;68.06;101575.38;5057147;28;45371;-75
2022/10/29 02:02:34;;;;;;;;;17.50;12.00;;;;;19.54;68.27;101557.75;5056182;28;66809;-76
2022/10/29 02:04:59;;;;;;;;;12.75;10.25;;;;;19.54;68.34;101562.19;5056682;28;45514;-76
2022/10/29 02:07:31;;;;;;;;;13.00;13.00;;;;;19.53;68.43;101555.19;5056553;28;45522;-76
2022/10/29 02:10:15;;;;;;;;;13.75;10.00;;;;;19.51;68.29;101544.69;5038971;28;45382;-76
2022/10/29 02:12:49;;;;;;;;;13.75;12.75;;;;;19.49;68.04;101541.28;5057008;28;45319;-76
2022/10/29 02:15:17;;;;;;;;;17.25;13.50;;;;;19.48;68.21;101538.72;5038536;28;46251;-76
2022/10/29 02:17:43;;;;;;;;;12.75;10.25;;;;;19.49;68.31;101530.72;5056782;28;45407;-76
2022/10/29 02:20:10;;;;;;;;;20.00;12.75;;;;;19.48;68.38;101523.75;5038726;28;45392;-75
2022/10/29 02:22:36;;;;;;;;;14.00;11.75;;;;;19.49;68.39;101530.72;5038390;28;45311;-76
2022/10/29 02:25:02;;;;;;;;;16.75;10.25;;;;;19.48;68.04;101536.09;5037759;28;66778;-76
2022/10/29 02:27:27;;;;;;;;;13.00;10.00;;;;;19.47;67.90;101542.31;5056495;28;45235;-76
2022/10/29 02:29:53;;;;;;;;;12.00;9.25;;;;;19.48;68.29;101531.69;5055826;28;67059;-76
2022/10/29 02:32:18;;;;;;;;;16.25;11.00;;;;;19.50;67.82;101526.28;5055645;28;67020;-76
2022/10/29 02:34:43;;;;;;;;;9.25;7.00;;;;;19.49;67.76;101522.81;5037618;28;69687;-76
2022/10/29 02:37:09;;;;;;;;;15.75;10.50;;;;;19.48;67.62;101521.13;5056238;28;45313;-76
2022/10/29 02:39:34;;;;;;;;;13.25;10.00;;;;;19.48;67.95;101521.13;5019651;28;67051;-76
2022/10/29 02:41:59;;;;;;;;;13.25;11.00;;;;;19.48;67.89;101525.53;5055470;28;66228;-76
2022/10/29 02:44:25;;;;;;;;;10.00;8.25;;;;;19.50;68.04;101518.38;5054928;28;75578;-76
2022/10/29 02:46:50;;;;;;;;;15.25;9.75;;;;;19.50;67.74;101515.72;5055225;28;71176;-76
2022/10/29 02:49:15;;;;;;;;;12.75;10.00;;;;;19.48;67.43;101510.56;5037327;28;70342;-76
2022/10/29 02:51:41;;;;;;;;;12.00;10.00;;;;;19.48;67.83;101514.97;5055326;28;63243;-76
2022/10/29 02:54:06;;;;;;;;;16.75;12.25;;;;;19.48;67.87;101505.28;5055337;28;67124;-76
2022/10/29 02:56:31;;;;;;;;;19.00;11.50;;;;;19.48;67.81;101507.91;5055295;28;67566;-76
2022/10/29 02:58:57;;;;;;;;;10.00;8.25;;;;;19.47;67.34;101502.72;5055246;28;66717;-76
2022/10/29 03:01:22;;;;;;;;;9.75;9.75;;;;;19.46;67.58;101501.00;5054829;28;45581;-76
2022/10/29 03:03:48;;;;;;;;;13.00;12.00;;;;;19.45;67.30;101504.59;5037961;28;46151;-76
2022/10/29 03:06:14;;;;;;;;;10.75;9.00;;;;;19.42;67.23;101497.66;5055725;28;45397;-75
2022/10/29 03:08:39;;;;;;;;;12.25;9.75;;;;;19.41;67.23;101487.19;5038263;28;45410;-76
2022/10/29 03:11:05;;;;;;;;;13.25;9.50;;;;;19.38;67.19;101485.56;5055958;28;47751;-76
2022/10/29 03:13:30;;;;;;;;;10.75;10.75;;;;;19.38;67.30;101484.72;5055817;28;46193;-75
2022/10/29 03:15:55;;;;;;;;;19.00;12.00;;;;;19.37;67.31;101488.28;5054877;28;69964;-76
2022/10/29 03:18:21;;;;;;;;;11.00;10.00;;;;;19.35;67.47;101488.38;5055992;28;45482;-76
2022/10/29 03:20:46;;;;;;;;;15.25;9.75;;;;;19.35;67.39;101491.00;5054733;28;56065;-76
2022/10/29 03:23:12;;;;;;;;;13.50;9.75;;;;;19.33;67.09;101487.59;5054936;28;67907;-76
2022/10/29 03:25:37;;;;;;;;;9.00;9.00;;;;;19.32;67.24;101493.84;5055684;28;45445;-76
2022/10/29 03:28:03;;;;;;;;;14.00;12.00;;;;;19.31;66.88;101492.94;5055977;28;45367;-76
2022/10/29 03:30:28;;;;;;;;;14.25;9.75;;;;;19.32;67.45;101486.75;5055795;28;45439;-75
2022/10/29 03:32:53;;;;;;;;;12.25;8.00;;;;;19.32;67.21;101483.28;5054597;28;60969;-75
2022/10/29 03:35:19;;;;;;;;;12.00;9.00;;;;;19.31;67.35;101485.03;5037041;28;61463;-76
2022/10/29 03:37:44;;;;;;;;;12.25;9.75;;;;;19.31;67.13;101490.31;5036937;28;64760;-75
2022/10/29 03:40:09;;;;;;;;;10.75;9.00;;;;;19.30;67.29;101483.34;5037443;28;45563;-75
2022/10/29 03:42:37;;;;;;;;;13.75;9.50;;;;;19.31;67.03;101500.03;5054994;28;59170;-76
2022/10/29 03:45:02;;;;;;;;;10.25;8.25;;;;;19.30;67.35;101498.34;5037327;28;45326;-76
2022/10/29 03:47:27;;;;;;;;;11.25;9.00;;;;;19.30;67.13;101495.69;5055110;28;45458;-75
2022/10/29 03:49:53;;;;;;;;;11.25;10.00;;;;;19.29;67.10;101479.00;5054903;28;69518;-76
2022/10/29 03:52:18;;;;;;;;;13.00;10.75;;;;;19.28;66.96;101468.53;5058307;28;59831;-76
2022/10/29 03:54:44;;;;;;;;;14.00;10.00;;;;;19.25;67.03;101466.06;5041151;28;45349;-76
2022/10/29 03:57:09;;;;;;;;;8.75;7.25;;;;;19.22;66.71;101464.41;5058291;28;65830;-76
2022/10/29 03:59:34;;;;;;;;;12.00;9.50;;;;;19.22;66.94;101479.41;5057966;28;70213;-76
2022/10/29 04:02:00;;;;;;;;;11.50;9.25;;;;;19.22;67.03;101460.94;5057716;28;69459;-76
2022/10/29 04:04:25;;;;;;;;;12.00;10.25;;;;;19.21;66.90;101459.25;5058299;28;52734;-76
2022/10/29 04:06:50;;;;;;;;;12.75;8.25;;;;;19.21;66.90;101461.88;5058009;28;64128;-76
2022/10/29 04:09:16;;;;;;;;;13.25;12.00;;;;;19.19;66.83;101463.75;5058463;28;53476;-76
2022/10/29 04:11:41;;;;;;;;;11.00;8.25;;;;;19.16;66.88;101470.03;5040571;28;46386;-76
2022/10/29 04:14:07;;;;;;;;;6.00;4.00;;;;;19.13;66.91;101476.34;5040773;28;45324;-76
2022/10/29 04:16:32;;;;;;;;;12.25;8.00;;;;;19.12;66.69;101486.97;5058083;28;50146;-76
2022/10/29 04:18:58;;;;;;;;;15.00;9.00;;;;;19.11;67.01;101493.16;5057745;28;68440;-76
2022/10/29 04:21:23;;;;;;;;;9.50;8.00;;;;;19.09;67.30;101490.63;5058176;28;46925;-76
2022/10/29 04:23:49;;;;;;;;;11.75;9.25;;;;;19.09;67.24;101487.13;5058437;28;45240;-76
2022/10/29 04:26:14;;;;;;;;;12.50;8.75;;;;;19.09;67.23;101487.13;5058742;28;45819;-76
2022/10/29 04:28:39;;;;;;;;;8.00;7.75;;;;;19.09;67.54;101487.13;5040585;28;45378;-76
2022/10/29 04:31:06;;;;;;;;;13.25;10.25;;;;;19.07;67.26;101492.47;5056972;28;71753;-76
2022/10/29 04:33:32;;;;;;;;;12.50;11.00;;;;;19.06;67.14;101482.88;5040259;28;45293;-75
2022/10/29 04:35:57;;;;;;;;;13.00;10.00;;;;;19.05;67.13;101482.94;5040474;28;45335;-75
2022/10/29 04:38:22;;;;;;;;;12.75;10.00;;;;;19.04;67.21;101482.09;5056189;28;65855;-76
2022/10/29 04:40:48;;;;;;;;;9.75;9.50;;;;;19.04;67.22;101478.63;5057984;28;49034;-76
2022/10/29 04:43:14;;;;;;;;;12.75;10.00;;;;;19.04;67.16;101475.97;5039989;28;45403;-76
2022/10/29 04:45:39;;;;;;;;;13.25;11.00;;;;;19.03;67.33;101468.97;5057990;28;45383;-76
2022/10/29 04:48:05;;;;;;;;;10.75;9.00;;;;;18.99;67.11;101460.38;5057747;28;56344;-76
2022/10/29 04:50:31;;;;;;;;;12.00;9.50;;;;;19.00;66.87;101471.78;5058173;28;47004;-78
2022/10/29 04:53:01;;;;;;;;;9.25;8.25;;;;;18.99;66.83;101470.09;5058008;28;45762;-78
2022/10/29 04:55:27;;;;;;;;;11.00;9.00;;;;;18.99;67.26;101472.72;5058128;28;45354;-78
2022/10/29 04:57:53;;;;;;;;;11.50;9.00;;;;;19.00;66.46;101467.38;5058291;28;45286;-78
2022/10/29 05:00:19;;;;;;;;;15.50;8.50;;;;;19.00;66.80;101466.50;5057519;28;45980;-78
2022/10/29 05:02:51;;;;;;;;;13.00;11.00;;;;;19.01;67.09;101461.16;5056775;28;45517;-78
2022/10/29 05:05:17;;;;;;;;;11.00;10.75;;;;;19.01;67.04;101458.50;5057984;28;45355;-78
2022/10/29 05:07:43;;;;;;;;;11.25;9.50;;;;;18.99;66.96;101449.81;5058229;28;45398;-78
2022/10/29 05:10:08;;;;;;;;;12.50;9.75;;;;;18.98;66.96;101448.13;5057836;28;45439;-78
2022/10/29 05:12:33;;;;;;;;;10.25;7.00;;;;;18.96;66.73;101452.63;5057765;28;45435;-78
2022/10/29 05:14:59;;;;;;;;;13.00;8.00;;;;;18.94;66.67;101458.00;5038444;28;67998;-78
2022/10/29 05:17:24;;;;;;;;;17.25;11.50;;;;;18.91;66.87;101452.03;5057494;28;50234;-78
2022/10/29 05:19:50;;;;;;;;;13.00;9.25;;;;;18.90;67.08;101447.66;5056417;28;74755;-78
2022/10/29 05:22:15;;;;;;;;;16.25;8.50;;;;;18.88;66.67;101439.00;5056752;28;69928;-78
2022/10/29 05:24:40;;;;;;;;;10.25;7.50;;;;;18.84;66.91;101440.94;5057754;28;45331;-78
2022/10/29 05:27:06;;;;;;;;;11.50;10.00;;;;;18.80;66.76;101436.72;5056590;28;69910;-78
2022/10/29 05:29:31;;;;;;;;;7.75;7.00;;;;;18.76;66.90;101432.56;5057004;28;46176;-78
2022/10/29 05:31:57;;;;;;;;;12.50;9.00;;;;;18.73;67.28;101430.91;5038526;28;72401;-78
2022/10/29 05:34:22;;;;;;;;;10.25;10.25;;;;;18.71;67.32;101431.94;5056310;28;69245;-78
2022/10/29 05:36:47;;;;;;;;;7.25;7.00;;;;;18.68;67.32;101429.44;5038518;28;70389;-78
2022/10/29 05:39:13;;;;;;;;;11.75;9.50;;;;;18.65;67.27;101435.75;5057339;28;46792;-78
2022/10/29 05:41:38;;;;;;;;;10.75;10.00;;;;;18.63;67.68;101427.06;5056232;28;67806;-78
2022/10/29 05:44:03;;;;;;;;;9.00;8.25;;;;;18.62;67.49;101419.22;5055948;28;69226;-78
2022/10/29 05:46:29;;;;;;;;;11.75;8.00;;;;;18.61;67.35;101406.97;5056431;28;65994;-78
2022/10/29 05:48:54;;;;;;;;;10.00;8.25;;;;;18.58;67.40;101408.81;5056252;28;69763;-78
2022/10/29 05:51:19;;;;;;;;;11.00;8.50;;;;;18.59;67.23;101407.06;5056233;28;71912;-78
2022/10/29 05:53:46;;;;;;;;;9.25;7.25;;;;;18.57;67.23;101406.25;5057203;28;45390;-78
2022/10/29 05:56:11;;;;;;;;;10.50;7.00;;;;;18.54;67.19;101404.66;5039121;28;45391;-78
2022/10/29 05:58:37;;;;;;;;;11.50;8.75;;;;;18.56;67.00;101413.31;5056647;28;46216;-78
2022/10/29 06:01:05;;;;;;;;;8.75;7.00;;;;;18.56;67.03;101415.13;5056066;28;67964;-78
2022/10/29 06:03:31;;;;;;;;;12.75;9.00;;;;;18.57;67.08;101408.91;5057065;28;45233;-78
2022/10/29 06:05:56;;;;;;;;;12.00;8.00;;;;;18.61;66.98;101414.88;5056196;28;66022;-77
2022/10/29 06:08:21;;;;;;;;;17.00;11.25;;;;;18.60;67.11;101405.28;5055843;28;75388;-78
2022/10/29 06:10:47;;;;;;;;;9.50;9.25;;;;;18.59;66.97;101404.44;5056536;28;52030;-78
2022/10/29 06:13:14;;;;;;;;;13.50;8.25;;;;;18.58;67.19;101400.91;5056329;28;45675;-78
2022/10/29 06:15:40;;;;;;;;;10.00;9.00;;;;;18.57;67.21;101390.44;5056767;28;45376;-78
2022/10/29 06:18:06;;;;;;;;;11.50;10.50;;;;;18.54;67.22;101393.25;5056593;28;46197;-77
2022/10/29 06:20:31;;;;;;;;;11.25;8.75;;;;;18.52;67.23;101405.66;5038399;28;45276;-78
2022/10/29 06:22:57;;;;;;;;;15.25;10.00;;;;;18.48;67.48;101415.53;5056380;28;51232;-78
2022/10/29 06:25:23;;;;;;;;;12.00;10.50;;;;;18.47;67.79;101407.69;5056610;28;45536;-77
2022/10/29 06:27:59;;;;;;;;;9.00;9.00;;;;;18.44;67.91;101406.03;5056212;28;46571;-78
2022/10/29 06:30:25;;;;;;;;;12.50;9.00;;;;;18.42;67.50;101407.91;5056470;28;45324;-78
2022/10/29 06:32:51;;;;;;;;;18.00;11.25;;;;;18.36;67.75;101403.81;5056576;28;45350;-78
2022/10/29 06:35:17;;;;;;;;;13.00;10.00;;;;;18.34;68.16;101410.09;5055523;28;69462;-78
2022/10/29 06:37:42;;;;;;;;;17.00;9.50;;;;;18.28;67.29;101421.81;5055574;28;66548;-78
2022/10/29 06:40:08;;;;;;;;;14.00;10.00;;;;;18.21;67.72;101423.03;5055947;28;55571;-78
2022/10/29 06:42:33;;;;;;;;;14.75;10.75;;;;;18.18;68.13;101437.22;5037832;28;45351;-78
2022/10/29 06:44:58;;;;;;;;;15.00;9.00;;;;;18.20;68.20;101426.59;5055610;28;56932;-78
2022/10/29 06:47:24;;;;;;;;;10.00;8.75;;;;;18.26;68.32;101431.56;5055239;28;76581;-78
2022/10/29 06:49:49;;;;;;;;;11.00;9.50;;;;;18.29;68.18;101428.75;5055538;28;63569;-78
2022/10/29 06:52:14;;;;;;;;;11.25;10.00;;;;;18.32;67.93;101409.31;5055504;28;62743;-78
2022/10/29 06:54:40;;;;;;;;;13.00;9.25;;;;;18.33;67.88;101405.75;5055931;28;49322;-78
2022/10/29 06:57:05;;;;;;;;;10.75;9.00;;;;;18.33;67.58;101411.88;5055629;28;46336;-78
2022/10/29 06:59:31;;;;;;;;;15.00;11.00;;;;;18.33;67.60;101408.38;5056088;28;45461;-77
2022/10/29 07:01:56;;;;;;;;;10.75;10.75;;;;;18.33;67.92;101422.44;5055226;28;66525;-78
2022/10/29 07:04:21;;;;;;;;;18.75;10.00;;;;;18.37;68.28;101412.59;5056047;28;45338;-78
2022/10/29 07:06:47;;;;;;;;;12.00;11.00;;;;;18.43;68.21;101406.16;5055812;28;47201;-78
2022/10/29 07:09:12;;;;;;;;;11.50;8.50;;;;;18.46;67.69;101401.56;5055850;28;45329;-78
2022/10/29 07:11:38;;;;;;;;;16.75;11.00;;;;;18.48;67.76;101394.44;5055691;28;45369;-78
2022/10/29 07:14:04;;;;;;;;;12.50;8.50;;;;;18.50;67.49;101397.00;5055975;28;45381;-77
2022/10/29 07:16:30;;;;;;;;;12.75;12.00;;;;;18.51;67.53;101399.53;5055950;28;47231;-78
2022/10/29 07:18:55;;;;;;;;;16.75;12.50;;;;;18.55;67.61;101400.22;5055757;28;45442;-77
2022/10/29 07:21:20;;;;;;;;;11.50;10.75;;;;;18.58;67.58;101398.28;5054839;28;66393;-78
2022/10/29 07:23:46;;;;;;;;;15.75;12.75;;;;;18.61;67.69;101385.88;5055991;28;45355;-78
2022/10/29 07:26:11;;;;;;;;;11.75;10.75;;;;;18.64;67.47;101391.00;5054474;28;46419;-78
2022/10/29 07:28:36;;;;;;;;;15.50;9.25;;;;;18.66;67.13;101384.69;5054741;28;71965;-78
2022/10/29 07:31:02;;;;;;;;;12.00;9.00;;;;;18.67;66.83;101390.84;5054778;28;68571;-78
2022/10/29 07:33:29;;;;;;;;;13.50;10.25;;;;;18.68;67.25;101396.00;5055791;28;45244;-78
2022/10/29 07:35:57;;;;;;;;;16.00;11.50;;;;;18.70;66.92;101393.28;5055511;28;47492;-77
2022/10/29 07:38:23;;;;;;;;;15.75;10.25;;;;;18.71;66.93;101405.56;5055669;28;45741;-78
2022/10/29 07:40:49;;;;;;;;;16.75;10.50;;;;;18.73;67.02;101395.78;5055211;28;45428;-78
2022/10/29 07:43:15;;;;;;;;;17.00;10.00;;;;;18.75;66.54;101402.66;5055550;28;45359;-79
2022/10/29 07:45:41;;;;;;;;;14.25;10.00;;;;;18.77;66.96;101406.06;5055233;28;46908;-78
2022/10/29 07:48:08;;;;;;;;;12.25;10.00;;;;;18.81;67.25;101414.72;5037247;28;45390;-78
2022/10/29 07:50:34;;;;;;;;;13.25;11.50;;;;;18.84;67.02;101408.44;5055605;28;45382;-78
2022/10/29 07:53:00;;;;;;;;;16.25;8.75;;;;;18.85;67.05;101405.72;5037639;28;45398;-78
2022/10/29 07:55:26;;;;;;;;;12.75;10.00;;;;;18.84;66.51;101411.06;5054920;28;45426;-78
2022/10/29 07:57:57;;;;;;;;;13.75;10.00;;;;;18.84;66.56;101409.28;5037531;28;45365;-78
2022/10/29 08:00:24;;;;;;;;;11.25;9.00;;;;;18.85;66.92;101404.84;5055340;28;45874;-78
2022/10/29 08:02:53;;;;;;;;;10.25;9.00;;;;;18.88;66.44;101404.69;5055380;28;45339;-78
2022/10/29 08:05:19;;;;;;;;;11.00;10.25;;;;;18.90;66.50;101408.94;5055133;28;45982;-78
2022/10/29 08:07:44;;;;;;;;;8.50;8.50;;;;;18.93;65.91;101410.59;5055300;28;45420;-77
2022/10/29 08:10:10;;;;;;;;;9.75;8.50;;;;;18.95;66.14;101417.47;5054088;28;65551;-78
2022/10/29 08:12:35;;;;;;;;;12.00;9.00;;;;;18.98;65.81;101413.84;5054117;28;69350;-78
2022/10/29 08:15:00;;;;;;;;;9.75;8.00;;;;;19.05;66.12;101415.19;5053986;28;74584;-78
2022/10/29 08:17:28;;;;;;;;;13.25;9.25;;;;;19.12;65.63;101416.56;5054249;28;67811;-78
2022/10/29 08:19:53;;;;;;;;;16.50;11.50;;;;;19.17;65.41;101416.34;5054913;28;45430;-75
2022/10/29 08:22:19;;;;;;;;;13.00;10.00;;;;;19.21;65.23;101425.78;5055018;28;45292;-75
2022/10/29 08:24:44;;;;;;;;;14.00;10.00;;;;;19.27;65.05;101422.78;5053740;28;66970;-75
2022/10/29 08:27:09;;;;;;;;;15.00;9.50;;;;;19.30;64.71;101427.06;5037035;28;45282;-75
2022/10/29 08:29:35;;;;;;;;;12.25;9.25;;;;;19.31;64.59;101428.75;5054777;28;49326;-75
2022/10/29 08:32:00;;;;;;;;;13.75;8.25;;;;;19.33;64.49;101422.47;5052704;28;72498;-75
2022/10/29 08:34:25;;;;;;;;;11.75;9.00;;;;;19.34;64.34;101431.25;5054036;28;60936;-75
2022/10/29 08:36:51;;;;;;;;;9.50;9.00;;;;;19.35;64.22;101427.66;5056061;28;57552;-75
2022/10/29 08:39:16;;;;;;;;;11.25;9.75;;;;;19.38;64.20;101416.09;5057073;28;66409;-75
2022/10/29 08:41:59;;;;;;;;;15.50;10.00;;;;;19.41;64.36;101429.97;5057243;28;69239;-78
2022/10/29 08:44:53;;;;;;;;;11.25;8.75;;;;;19.45;64.54;101428.88;5057791;28;46291;-78
2022/10/29 08:47:20;;;;;;;;;11.00;8.50;;;;;19.49;64.31;101433.03;5058206;28;45927;-78
2022/10/29 08:49:48;;;;;;;;;10.50;8.00;;;;;19.56;64.27;101437.97;5040383;28;45400;-78
2022/10/29 08:52:26;;;;;;;;;11.00;8.00;;;;;19.62;63.75;101421.78;5039943;28;45500;-78
2022/10/29 08:55:14;;;;;;;;;7.75;7.00;;;;;19.67;63.17;101430.31;5057795;28;46480;-79
2022/10/29 08:57:43;;;;;;;;;13.00;9.50;;;;;19.72;63.46;101425.59;5039917;28;45824;-78
2022/10/29 09:00:20;;;;;;;;;12.50;10.00;;;;;19.81;63.41;101419.84;5040102;28;45382;-78
2022/10/29 09:02:47;;;;;;;;;9.75;9.25;;;;;19.90;63.13;101418.47;5057996;28;45353;-78
2022/10/29 09:05:14;;;;;;;;;9.50;8.75;;;;;19.99;63.17;101417.09;5039879;28;46196;-78
2022/10/29 09:08:05;;;;;;;;;9.25;7.50;;;;;20.09;62.77;101412.97;5039466;28;45405;-78
2022/10/29 09:10:42;;;;;;;;;11.00;7.50;;;;;20.21;62.23;101403.47;5023351;28;45406;-78
2022/10/29 09:13:38;;;;;;;;;8.50;8.50;;;;;20.31;62.60;101400.19;5040078;28;45527;-78
2022/10/29 09:16:34;;;;;;;;;12.25;8.75;;;;;20.40;61.86;101411.16;5057649;28;46568;-78
2022/10/29 09:19:09;;;;;;;;;10.00;9.00;;;;;20.44;61.72;101412.69;5057507;28;45930;-78
2022/10/29 09:21:54;;;;;;;;;9.75;8.00;;;;;20.52;60.68;101414.84;5039351;28;45396;-78
2022/10/29 09:24:34;;;;;;;;;13.25;9.50;;;;;20.56;60.73;101414.59;5039735;28;45375;-79
2022/10/29 09:27:07;;;;;;;;;16.50;12.50;;;;;20.63;61.02;101418.56;5057467;28;46067;-78
2022/10/29 09:30:02;;;;;;;;;15.75;10.00;;;;;20.71;60.00;101415.50;5039336;28;48023;-78
2022/10/29 09:32:41;;;;;;;;;9.75;8.50;;;;;20.81;60.08;101415.78;5039582;28;45397;-78
2022/10/29 09:35:13;;;;;;;;;16.25;10.25;;;;;20.86;59.83;101409.25;5039466;28;45566;-78
2022/10/29 09:37:48;;;;;;;;;12.25;9.00;;;;;20.96;59.59;101413.97;5057099;28;47331;-78
2022/10/29 09:40:28;;;;;;;;;8.50;8.50;;;;;21.02;59.33;101422.41;5056027;28;45412;-78
2022/10/29 09:42:54;;;;;;;;;16.25;11.50;;;;;21.11;59.18;101412.19;5057432;28;45416;-78
2022/10/29 09:45:23;;;;;;;;;14.50;9.00;;;;;21.20;59.22;101414.25;5057070;28;45370;-78
2022/10/29 09:47:58;;;;;;;;;13.50;11.00;;;;;21.26;59.39;101414.69;5038692;28;45414;-78
2022/10/29 09:50:34;;;;;;;;;12.75;10.75;;;;;21.31;59.06;101406.47;5038750;28;45746;-78
2022/10/29 09:53:00;;;;;;;;;13.25;9.00;;;;;21.37;58.55;101408.72;5039415;28;45399;-78
2022/10/29 09:55:29;;;;;;;;;11.00;10.00;;;;;21.46;58.63;101404.66;5039142;28;45361;-78
2022/10/29 09:57:56;;;;;;;;;9.25;8.50;;;;;21.53;58.77;101402.50;5038964;28;45466;-78
2022/10/29 10:00:26;;;;;;;;;15.50;9.00;;;;;21.58;58.10;101409.19;5039057;28;45723;-78
2022/10/29 10:03:06;;;;;;;;;14.25;10.00;;;;;21.65;58.25;101405.16;5039220;28;45450;-78
2022/10/29 10:05:33;;;;;;;;;11.75;11.00;;;;;21.74;58.06;101411.66;5038755;28;45393;-78
2022/10/29 10:08:19;;;;;;;;;10.00;10.00;;;;;21.82;57.94;101408.50;5056892;28;45625;-78
2022/10/29 10:10:54;;;;;;;;;12.50;11.00;;;;;21.92;58.09;101414.09;5055500;28;68809;-78
2022/10/29 10:13:25;;;;;;;;;15.00;8.75;;;;;21.99;57.78;101407.41;5057152;28;45506;-78
2022/10/29 10:15:53;;;;;;;;;12.00;8.75;;;;;22.06;57.46;101403.38;5038928;28;45488;-79
2022/10/29 10:18:24;;;;;;;;;13.00;9.50;;;;;22.14;56.74;101401.09;5038688;28;45370;-78
2022/10/29 10:21:13;;;;;;;;;14.25;8.50;;;;;22.24;56.64;101402.16;5021333;28;45299;-78
2022/10/29 10:23:47;;;;;;;;;9.50;7.25;;;;;22.37;56.75;101394.25;5038799;28;45465;-78
2022/10/29 10:26:32;;;;;;;;;13.00;8.25;;;;;22.51;55.76;101392.44;5056655;28;45339;-78
2022/10/29 10:29:13;;;;;;;;;11.75;8.50;;;;;22.70;55.39;101392.88;5056645;28;46428;-78
2022/10/29 10:31:40;;;;;;;;;9.00;7.00;;;;;22.90;55.30;101390.63;5055154;28;45741;-78
2022/10/29 10:34:15;;;;;;;;;12.00;8.00;;;;;23.14;54.88;101394.22;5056199;28;45384;-78
2022/10/29 10:36:45;;;;;;;;;9.50;9.00;;;;;23.37;54.45;101391.72;5056518;28;45578;-78
2022/10/29 10:39:24;;;;;;;;;8.75;8.50;;;;;23.59;53.86;101393.66;5056548;28;47395;-78
2022/10/29 10:41:50;;;;;;;;;11.50;8.75;;;;;23.83;53.02;101377.72;5038396;28;45328;-78
2022/10/29 10:44:18;;;;;;;;;10.75;7.50;;;;;24.09;52.47;101381.06;5038187;28;45543;-78
2022/10/29 10:46:44;;;;;;;;;9.00;7.00;;;;;24.34;51.28;101372.03;5038398;28;45438;-78
2022/10/29 10:49:12;;;;;;;;;9.75;7.75;;;;;24.66;51.47;101371.38;5037018;28;71605;-79
2022/10/29 10:51:39;;;;;;;;;9.75;7.50;;;;;24.97;50.31;101363.63;5056241;28;45489;-78
2022/10/29 10:54:37;;;;;;;;;5.25;5.25;;;;;25.29;49.80;101362.88;5038349;28;45487;-79
2022/10/29 10:57:18;;;;;;;;;9.75;7.00;;;;;25.45;48.33;101363.31;5056282;28;45509;-79
2022/10/29 10:59:53;;;;;;;;;8.25;7.00;;;;;25.52;48.12;101360.13;5055001;28;46551;-78
2022/10/29 11:02:22;;;;;;;;;7.75;6.00;;;;;25.95;46.34;101353.94;5056097;28;45732;-78
2022/10/29 11:04:55;;;;;;;;;10.50;8.00;;;;;26.73;47.03;101352.56;5055850;28;45484;-78
2022/10/29 11:07:23;;;;;;;;;7.50;7.00;;;;;27.45;45.30;101356.00;5038207;28;45473;-79
2022/10/29 11:09:49;;;;;;;;;9.25;7.00;;;;;27.84;43.84;101357.78;5037017;28;75312;-79
2022/10/29 11:12:38;;;;;;;;;7.75;6.75;;;;;27.93;43.89;101357.81;5038025;28;46201;-78
2022/10/29 11:15:29;;;;;;;;;9.25;6.75;;;;;27.91;43.93;101364.31;5055869;28;45382;-79
2022/10/29 11:18:13;;;;;;;;;8.75;6.25;;;;;27.77;42.05;101369.06;5055741;28;45388;-79
2022/10/29 11:20:44;;;;;;;;;8.00;6.50;;;;;27.68;43.12;101375.28;5055438;28;47161;-79
2022/10/29 11:23:32;;;;;;;;;12.00;8.00;;;;;27.71;42.67;101376.81;5055842;28;45399;-79
2022/10/29 11:26:13;;;;;;;;;13.50;8.50;;;;;27.79;42.11;101372.44;5055847;28;45576;-78